sensor_id;sensor_type;location;lat;lon;timestamp;pressure;altitude;pressure_sealevel;temperature;humidity
56719;BME280;42597;40.636;0.278;2023-03-05T00:00:10;97475.63;;;11.37;54.13
56719;BME280;42597;40.636;0.278;2023-03-05T00:02:35;97472.19;;;11.93;55.23
56719;BME280;42597;40.636;0.278;2023-03-05T00:05:01;97478.97;;;11.19;53.56
56719;BME280;42597;40.636;0.278;2023-03-05T00:07:26;97480.66;;;9.71;50.23
56719;BME280;42597;40.636;0.278;2023-03-05T00:09:52;97486.75;;;10.34;56.75
56719;BME280;42597;40.636;0.278;2023-03-05T00:12:17;97476.63;;;10.68;51.36
56719;BME280;42597;40.636;0.278;2023-03-05T00:14:43;97476.63;;;10.56;50.83
56719;BME280;42597;40.636;0.278;2023-03-05T00:17:09;97474.59;;;10.90;57.49
56719;BME280;42597;40.636;0.278;2023-03-05T00:19:34;97470.13;;;11.74;55.50
56719;BME280;42597;40.636;0.278;2023-03-05T00:22:00;97477.28;;;10.65;54.12
56719;BME280;42597;40.636;0.278;2023-03-05T00:24:25;97480.50;;;9.88;54.26
56719;BME280;42597;40.636;0.278;2023-03-05T00:26:51;97477.50;;;10.97;51.15
56719;BME280;42597;40.636;0.278;2023-03-05T00:29:18;97484.09;;;9.59;50.71
56719;BME280;42597;40.636;0.278;2023-03-05T00:31:46;97494.88;;;8.03;55.63
56719;BME280;42597;40.636;0.278;2023-03-05T00:34:15;97491.78;;;7.66;57.04
56719;BME280;42597;40.636;0.278;2023-03-05T00:36:43;97496.22;;;7.62;56.69
56719;BME280;42597;40.636;0.278;2023-03-05T00:39:10;97494.94;;;7.33;57.79
56719;BME280;42597;40.636;0.278;2023-03-05T00:41:36;97495.72;;;7.51;57.00
56719;BME280;42597;40.636;0.278;2023-03-05T00:44:02;97484.63;;;7.87;57.17
56719;BME280;42597;40.636;0.278;2023-03-05T00:46:28;97493.13;;;8.07;57.29
56719;BME280;42597;40.636;0.278;2023-03-05T00:48:54;97491.50;;;8.23;58.99
56719;BME280;42597;40.636;0.278;2023-03-05T00:51:21;97484.72;;;8.17;55.81
56719;BME280;42597;40.636;0.278;2023-03-05T00:53:46;97481.19;;;8.43;56.13
56719;BME280;42597;40.636;0.278;2023-03-05T00:56:12;97488.50;;;8.16;56.70
56719;BME280;42597;40.636;0.278;2023-03-05T00:58:37;97483.97;;;8.55;55.56
56719;BME280;42597;40.636;0.278;2023-03-05T01:01:04;97483.47;;;9.42;56.34
56719;BME280;42597;40.636;0.278;2023-03-05T01:03:32;97481.16;;;9.31;53.90
56719;BME280;42597;40.636;0.278;2023-03-05T01:05:59;97484.66;;;10.19;60.54
56719;BME280;42597;40.636;0.278;2023-03-05T01:08:25;97479.97;;;10.41;56.61
56719;BME280;42597;40.636;0.278;2023-03-05T01:10:51;97472.66;;;8.40;53.45
56719;BME280;42597;40.636;0.278;2023-03-05T01:13:17;97478.03;;;8.23;55.45
56719;BME280;42597;40.636;0.278;2023-03-05T01:15:42;97474.31;;;8.07;55.03
56719;BME280;42597;40.636;0.278;2023-03-05T01:18:08;97479.44;;;8.76;55.33
56719;BME280;42597;40.636;0.278;2023-03-05T01:20:34;97475.28;;;7.94;55.87
56719;BME280;42597;40.636;0.278;2023-03-05T01:22:59;97476.59;;;7.35;58.27
56719;BME280;42597;40.636;0.278;2023-03-05T01:25:26;97467.13;;;8.96;61.94
56719;BME280;42597;40.636;0.278;2023-03-05T01:27:52;97475.06;;;8.16;55.96
56719;BME280;42597;40.636;0.278;2023-03-05T01:30:18;97466.44;;;7.84;56.61
56719;BME280;42597;40.636;0.278;2023-03-05T01:32:44;97462.88;;;8.65;63.17
56719;BME280;42597;40.636;0.278;2023-03-05T01:35:15;97468.91;;;8.07;55.62
56719;BME280;42597;40.636;0.278;2023-03-05T01:37:41;97460.09;;;8.36;56.18
56719;BME280;42597;40.636;0.278;2023-03-05T01:40:09;97463.19;;;8.94;57.15
56719;BME280;42597;40.636;0.278;2023-03-05T01:42:35;97458.59;;;8.94;61.75
56719;BME280;42597;40.636;0.278;2023-03-05T01:47:28;97456.50;;;8.70;55.89
56719;BME280;42597;40.636;0.278;2023-03-05T01:49:54;97450.44;;;9.24;54.78
56719;BME280;42597;40.636;0.278;2023-03-05T01:52:22;97447.63;;;8.31;55.26
56719;BME280;42597;40.636;0.278;2023-03-05T01:54:54;97438.78;;;8.22;56.39
56719;BME280;42597;40.636;0.278;2023-03-05T01:57:27;97431.91;;;9.22;60.14
56719;BME280;42597;40.636;0.278;2023-03-05T01:59:58;97431.00;;;9.84;59.77
56719;BME280;42597;40.636;0.278;2023-03-05T02:02:26;97422.69;;;10.59;59.55
56719;BME280;42597;40.636;0.278;2023-03-05T02:04:59;97425.31;;;9.11;56.48
56719;BME280;42597;40.636;0.278;2023-03-05T02:07:26;97416.91;;;8.92;59.05
56719;BME280;42597;40.636;0.278;2023-03-05T02:09:53;97416.13;;;9.12;59.32
56719;BME280;42597;40.636;0.278;2023-03-05T02:12:19;97408.97;;;8.45;55.52
56719;BME280;42597;40.636;0.278;2023-03-05T02:14:47;97406.72;;;8.47;56.28
56719;BME280;42597;40.636;0.278;2023-03-05T02:17:13;97397.13;;;10.57;59.79
56719;BME280;42597;40.636;0.278;2023-03-05T02:19:48;97406.69;;;10.05;59.10
56719;BME280;42597;40.636;0.278;2023-03-05T02:22:15;97396.00;;;10.21;54.72
56719;BME280;42597;40.636;0.278;2023-03-05T02:24:41;97398.38;;;8.69;53.92
56719;BME280;42597;40.636;0.278;2023-03-05T02:27:07;97390.94;;;9.08;60.15
56719;BME280;42597;40.636;0.278;2023-03-05T02:29:33;97387.31;;;8.62;53.51
56719;BME280;42597;40.636;0.278;2023-03-05T02:32:03;97380.47;;;9.27;57.71
56719;BME280;42597;40.636;0.278;2023-03-05T02:34:28;97373.50;;;10.66;57.95
56719;BME280;42597;40.636;0.278;2023-03-05T02:36:54;97379.81;;;10.21;57.16
56719;BME280;42597;40.636;0.278;2023-03-05T02:39:19;97362.44;;;10.83;56.52
56719;BME280;42597;40.636;0.278;2023-03-05T02:41:45;97365.41;;;10.17;59.08
56719;BME280;42597;40.636;0.278;2023-03-05T02:44:10;97369.78;;;8.98;57.16
56719;BME280;42597;40.636;0.278;2023-03-05T02:46:36;97364.94;;;10.15;54.37
56719;BME280;42597;40.636;0.278;2023-03-05T02:49:02;97363.25;;;10.10;57.15
56719;BME280;42597;40.636;0.278;2023-03-05T02:51:27;97358.19;;;10.70;53.46
56719;BME280;42597;40.636;0.278;2023-03-05T02:53:53;97352.94;;;10.49;57.46
56719;BME280;42597;40.636;0.278;2023-03-05T02:56:18;97349.84;;;10.75;54.92
56719;BME280;42597;40.636;0.278;2023-03-05T02:58:44;97350.91;;;9.64;52.21
56719;BME280;42597;40.636;0.278;2023-03-05T03:01:10;97343.53;;;10.71;57.29
56719;BME280;42597;40.636;0.278;2023-03-05T03:03:36;97334.81;;;10.90;54.25
56719;BME280;42597;40.636;0.278;2023-03-05T03:06:01;97343.34;;;9.91;54.15
56719;BME280;42597;40.636;0.278;2023-03-05T03:08:27;97334.34;;;10.48;53.65
56719;BME280;42597;40.636;0.278;2023-03-05T03:10:53;97329.53;;;10.94;54.70
56719;BME280;42597;40.636;0.278;2023-03-05T03:13:22;97331.22;;;10.46;55.54
56719;BME280;42597;40.636;0.278;2023-03-05T03:15:48;97320.47;;;10.74;55.94
56719;BME280;42597;40.636;0.278;2023-03-05T03:18:13;97326.38;;;10.39;52.14
56719;BME280;42597;40.636;0.278;2023-03-05T03:20:39;97321.22;;;10.34;54.17
56719;BME280;42597;40.636;0.278;2023-03-05T03:23:04;97319.06;;;9.33;52.19
56719;BME280;42597;40.636;0.278;2023-03-05T03:25:30;97313.28;;;9.92;53.32
56719;BME280;42597;40.636;0.278;2023-03-05T03:27:56;97306.88;;;9.84;59.19
56719;BME280;42597;40.636;0.278;2023-03-05T03:30:22;97316.56;;;9.98;56.20
56719;BME280;42597;40.636;0.278;2023-03-05T03:32:47;97309.22;;;11.00;55.88
56719;BME280;42597;40.636;0.278;2023-03-05T03:35:14;97316.78;;;9.80;52.54
56719;BME280;42597;40.636;0.278;2023-03-05T03:37:40;97315.59;;;9.45;51.62
56719;BME280;42597;40.636;0.278;2023-03-05T03:40:06;97297.41;;;10.52;58.14
56719;BME280;42597;40.636;0.278;2023-03-05T03:42:32;97316.97;;;9.51;56.46
56719;BME280;42597;40.636;0.278;2023-03-05T03:44:58;97309.94;;;11.12;55.94
56719;BME280;42597;40.636;0.278;2023-03-05T03:47:24;97311.53;;;10.73;53.65
56719;BME280;42597;40.636;0.278;2023-03-05T03:49:53;97307.59;;;10.83;53.87
56719;BME280;42597;40.636;0.278;2023-03-05T03:52:19;97307.34;;;10.23;53.08
56719;BME280;42597;40.636;0.278;2023-03-05T03:54:45;97305.31;;;10.32;55.94
56719;BME280;42597;40.636;0.278;2023-03-05T03:57:11;97297.59;;;10.71;53.25
56719;BME280;42597;40.636;0.278;2023-03-05T03:59:36;97297.13;;;10.69;55.31
56719;BME280;42597;40.636;0.278;2023-03-05T04:02:02;97296.00;;;10.82;54.55
56719;BME280;42597;40.636;0.278;2023-03-05T04:04:27;97290.38;;;10.75;53.09
56719;BME280;42597;40.636;0.278;2023-03-05T04:06:54;97291.66;;;11.22;51.29
56719;BME280;42597;40.636;0.278;2023-03-05T04:09:20;97296.78;;;11.11;51.78
56719;BME280;42597;40.636;0.278;2023-03-05T04:11:45;97302.28;;;9.97;51.38
56719;BME280;42597;40.636;0.278;2023-03-05T04:14:11;97300.03;;;10.11;56.15
56719;BME280;42597;40.636;0.278;2023-03-05T04:16:36;97301.59;;;10.12;56.60
56719;BME280;42597;40.636;0.278;2023-03-05T04:19:02;97300.56;;;10.54;51.86
56719;BME280;42597;40.636;0.278;2023-03-05T04:21:27;97297.91;;;10.17;56.35
56719;BME280;42597;40.636;0.278;2023-03-05T04:23:53;97303.97;;;9.77;53.66
56719;BME280;42597;40.636;0.278;2023-03-05T04:26:19;97312.03;;;8.86;54.82
56719;BME280;42597;40.636;0.278;2023-03-05T04:28:45;97307.00;;;9.18;56.03
56719;BME280;42597;40.636;0.278;2023-03-05T04:31:10;97306.72;;;9.11;54.06
56719;BME280;42597;40.636;0.278;2023-03-05T04:33:36;97309.97;;;7.82;55.34
56719;BME280;42597;40.636;0.278;2023-03-05T04:36:01;97306.97;;;7.75;57.44
56719;BME280;42597;40.636;0.278;2023-03-05T04:38:27;97300.50;;;9.31;55.14
56719;BME280;42597;40.636;0.278;2023-03-05T04:40:52;97306.84;;;8.81;55.32
56719;BME280;42597;40.636;0.278;2023-03-05T04:43:18;97306.66;;;8.65;58.49
56719;BME280;42597;40.636;0.278;2023-03-05T04:45:43;97308.78;;;10.21;58.00
56719;BME280;42597;40.636;0.278;2023-03-05T04:48:10;97308.91;;;10.00;53.96
56719;BME280;42597;40.636;0.278;2023-03-05T04:50:37;97301.06;;;9.95;56.69
56719;BME280;42597;40.636;0.278;2023-03-05T04:53:02;97298.09;;;10.24;56.08
56719;BME280;42597;40.636;0.278;2023-03-05T04:55:28;97296.50;;;10.60;54.77
56719;BME280;42597;40.636;0.278;2023-03-05T04:57:53;97292.06;;;10.03;57.11
56719;BME280;42597;40.636;0.278;2023-03-05T05:00:19;97293.03;;;10.87;55.43
56719;BME280;42597;40.636;0.278;2023-03-05T05:02:48;97294.78;;;10.68;54.51
56719;BME280;42597;40.636;0.278;2023-03-05T05:05:19;97292.84;;;10.80;53.62
56719;BME280;42597;40.636;0.278;2023-03-05T05:07:45;97299.25;;;9.86;50.89
56719;BME280;42597;40.636;0.278;2023-03-05T05:10:13;97285.88;;;10.79;52.87
56719;BME280;42597;40.636;0.278;2023-03-05T05:12:39;97285.38;;;11.18;51.89
56719;BME280;42597;40.636;0.278;2023-03-05T05:15:06;97282.72;;;10.25;54.29
56719;BME280;42597;40.636;0.278;2023-03-05T05:17:32;97302.31;;;8.73;53.83
56719;BME280;42597;40.636;0.278;2023-03-05T05:20:02;97306.00;;;7.88;54.75
56719;BME280;42597;40.636;0.278;2023-03-05T05:22:33;97298.47;;;8.95;54.84
56719;BME280;42597;40.636;0.278;2023-03-05T05:24:58;97309.97;;;8.12;55.38
56719;BME280;42597;40.636;0.278;2023-03-05T05:27:24;97297.19;;;8.38;54.91
56719;BME280;42597;40.636;0.278;2023-03-05T05:29:50;97303.94;;;8.15;56.26
56719;BME280;42597;40.636;0.278;2023-03-05T05:32:20;97311.13;;;8.40;56.77
56719;BME280;42597;40.636;0.278;2023-03-05T05:34:47;97307.38;;;8.24;57.73
56719;BME280;42597;40.636;0.278;2023-03-05T05:37:12;97300.75;;;7.54;57.20
56719;BME280;42597;40.636;0.278;2023-03-05T05:39:38;97303.56;;;8.25;59.18
56719;BME280;42597;40.636;0.278;2023-03-05T05:42:04;97308.53;;;8.86;59.32
56719;BME280;42597;40.636;0.278;2023-03-05T05:44:29;97307.19;;;8.00;56.75
56719;BME280;42597;40.636;0.278;2023-03-05T05:46:55;97314.81;;;7.98;58.38
56719;BME280;42597;40.636;0.278;2023-03-05T05:49:20;97308.22;;;8.46;58.30
56719;BME280;42597;40.636;0.278;2023-03-05T05:51:46;97312.28;;;8.52;59.23
56719;BME280;42597;40.636;0.278;2023-03-05T05:54:12;97313.13;;;7.84;55.96
56719;BME280;42597;40.636;0.278;2023-03-05T05:56:38;97312.00;;;7.85;59.18
56719;BME280;42597;40.636;0.278;2023-03-05T05:59:04;97320.81;;;7.56;57.12
56719;BME280;42597;40.636;0.278;2023-03-05T06:01:30;97316.50;;;8.02;56.41
56719;BME280;42597;40.636;0.278;2023-03-05T06:03:57;97322.94;;;7.33;57.16
56719;BME280;42597;40.636;0.278;2023-03-05T06:06:25;97326.75;;;7.32;57.76
56719;BME280;42597;40.636;0.278;2023-03-05T06:08:51;97319.50;;;6.55;60.03
56719;BME280;42597;40.636;0.278;2023-03-05T06:11:17;97311.16;;;7.64;64.39
56719;BME280;42597;40.636;0.278;2023-03-05T06:13:44;97306.81;;;8.10;57.84
56719;BME280;42597;40.636;0.278;2023-03-05T06:16:13;97311.03;;;7.43;58.42
56719;BME280;42597;40.636;0.278;2023-03-05T06:18:39;97313.66;;;7.69;58.17
56719;BME280;42597;40.636;0.278;2023-03-05T06:21:11;97305.31;;;8.72;58.53
56719;BME280;42597;40.636;0.278;2023-03-05T06:23:37;97300.91;;;9.67;58.85
56719;BME280;42597;40.636;0.278;2023-03-05T06:26:05;97300.16;;;9.91;58.60
56719;BME280;42597;40.636;0.278;2023-03-05T06:28:32;97302.06;;;9.32;53.32
56719;BME280;42597;40.636;0.278;2023-03-05T06:31:09;97304.50;;;8.92;57.45
56719;BME280;42597;40.636;0.278;2023-03-05T06:33:35;97299.34;;;9.20;57.91
56719;BME280;42597;40.636;0.278;2023-03-05T06:36:05;97293.16;;;9.65;58.06
56719;BME280;42597;40.636;0.278;2023-03-05T06:38:32;97289.78;;;10.05;55.71
56719;BME280;42597;40.636;0.278;2023-03-05T06:41:03;97291.38;;;11.11;54.49
56719;BME280;42597;40.636;0.278;2023-03-05T06:43:34;97302.81;;;8.87;50.85
56719;BME280;42597;40.636;0.278;2023-03-05T06:46:34;97289.06;;;10.57;56.03
56719;BME280;42597;40.636;0.278;2023-03-05T06:49:02;97292.88;;;11.24;54.63
56719;BME280;42597;40.636;0.278;2023-03-05T06:51:30;97292.59;;;10.45;54.09
56719;BME280;42597;40.636;0.278;2023-03-05T06:54:02;97292.84;;;10.03;54.71
56719;BME280;42597;40.636;0.278;2023-03-05T06:56:28;97289.28;;;10.64;53.11
56719;BME280;42597;40.636;0.278;2023-03-05T06:58:54;97298.13;;;10.36;55.24
56719;BME280;42597;40.636;0.278;2023-03-05T07:01:20;97301.50;;;10.46;51.76
56719;BME280;42597;40.636;0.278;2023-03-05T07:03:50;97294.00;;;11.23;50.11
56719;BME280;42597;40.636;0.278;2023-03-05T07:06:16;97299.03;;;11.69;51.65
56719;BME280;42597;40.636;0.278;2023-03-05T07:08:43;97298.78;;;10.09;52.76
56719;BME280;42597;40.636;0.278;2023-03-05T07:11:12;97293.28;;;10.82;51.62
56719;BME280;42597;40.636;0.278;2023-03-05T07:13:38;97302.56;;;10.57;49.71
56719;BME280;42597;40.636;0.278;2023-03-05T07:16:08;97302.19;;;10.06;50.89
56719;BME280;42597;40.636;0.278;2023-03-05T07:18:35;97298.09;;;10.24;54.18
56719;BME280;42597;40.636;0.278;2023-03-05T07:21:03;97298.72;;;9.35;51.28
56719;BME280;42597;40.636;0.278;2023-03-05T07:23:28;97301.47;;;9.97;51.30
56719;BME280;42597;40.636;0.278;2023-03-05T07:25:54;97301.41;;;9.81;48.71
56719;BME280;42597;40.636;0.278;2023-03-05T07:28:20;97288.47;;;10.76;53.74
56719;BME280;42597;40.636;0.278;2023-03-05T07:31:00;97296.81;;;11.27;52.25
56719;BME280;42597;40.636;0.278;2023-03-05T07:33:26;97285.75;;;10.35;47.54
56719;BME280;42597;40.636;0.278;2023-03-05T07:35:52;97289.91;;;11.29;51.98
56719;BME280;42597;40.636;0.278;2023-03-05T07:38:18;97291.84;;;11.29;50.17
56719;BME280;42597;40.636;0.278;2023-03-05T07:40:43;97297.09;;;11.37;49.87
56719;BME280;42597;40.636;0.278;2023-03-05T07:43:09;97290.97;;;11.41;49.12
56719;BME280;42597;40.636;0.278;2023-03-05T07:45:38;97308.72;;;10.42;49.84
56719;BME280;42597;40.636;0.278;2023-03-05T07:48:05;97315.00;;;10.21;48.57
56719;BME280;42597;40.636;0.278;2023-03-05T07:50:31;97320.50;;;9.30;49.75
56719;BME280;42597;40.636;0.278;2023-03-05T07:52:58;97314.91;;;9.48;52.09
56719;BME280;42597;40.636;0.278;2023-03-05T07:55:23;97321.41;;;8.59;51.62
56719;BME280;42597;40.636;0.278;2023-03-05T07:57:49;97326.59;;;8.14;53.56
56719;BME280;42597;40.636;0.278;2023-03-05T08:00:14;97324.47;;;8.28;53.43
56719;BME280;42597;40.636;0.278;2023-03-05T08:02:40;97327.78;;;7.96;54.38
56719;BME280;42597;40.636;0.278;2023-03-05T08:05:06;97318.13;;;8.54;52.79
56719;BME280;42597;40.636;0.278;2023-03-05T08:07:31;97322.97;;;9.35;50.24
56719;BME280;42597;40.636;0.278;2023-03-05T08:09:57;97319.28;;;9.40;50.84
56719;BME280;42597;40.636;0.278;2023-03-05T08:12:22;97326.81;;;9.34;49.61
56719;BME280;42597;40.636;0.278;2023-03-05T08:14:48;97308.47;;;10.10;53.79
56719;BME280;42597;40.636;0.278;2023-03-05T08:17:15;97321.13;;;9.15;49.00
56719;BME280;42597;40.636;0.278;2023-03-05T08:19:41;97310.56;;;9.10;50.55
56719;BME280;42597;40.636;0.278;2023-03-05T08:22:06;97319.13;;;9.70;51.32
56719;BME280;42597;40.636;0.278;2023-03-05T08:24:32;97316.19;;;9.62;52.41
56719;BME280;42597;40.636;0.278;2023-03-05T08:26:58;97323.47;;;9.50;48.46
56719;BME280;42597;40.636;0.278;2023-03-05T08:29:24;97313.41;;;10.20;52.92
56719;BME280;42597;40.636;0.278;2023-03-05T08:31:50;97318.16;;;9.99;48.40
56719;BME280;42597;40.636;0.278;2023-03-05T08:34:20;97319.22;;;9.49;50.35
56719;BME280;42597;40.636;0.278;2023-03-05T08:36:46;97319.06;;;9.33;51.39
56719;BME280;42597;40.636;0.278;2023-03-05T08:39:13;97319.41;;;9.44;50.74
56719;BME280;42597;40.636;0.278;2023-03-05T08:41:38;97316.53;;;9.61;52.30
56719;BME280;42597;40.636;0.278;2023-03-05T08:44:04;97309.53;;;9.48;53.05
56719;BME280;42597;40.636;0.278;2023-03-05T08:46:30;97309.78;;;9.55;53.38
56719;BME280;42597;40.636;0.278;2023-03-05T08:48:55;97306.19;;;9.63;53.03
56719;BME280;42597;40.636;0.278;2023-03-05T08:51:22;97297.44;;;9.78;52.59
56719;BME280;42597;40.636;0.278;2023-03-05T08:53:52;97302.19;;;9.81;52.67
56719;BME280;42597;40.636;0.278;2023-03-05T08:56:18;97293.84;;;9.86;52.79
56719;BME280;42597;40.636;0.278;2023-03-05T08:58:44;97296.31;;;9.92;53.20
56719;BME280;42597;40.636;0.278;2023-03-05T09:01:11;97290.03;;;10.00;52.59
56719;BME280;42597;40.636;0.278;2023-03-05T09:03:37;97289.34;;;9.91;52.69
56719;BME280;42597;40.636;0.278;2023-03-05T09:06:06;97289.13;;;10.08;51.72
56719;BME280;42597;40.636;0.278;2023-03-05T09:08:32;97290.78;;;10.12;52.19
56719;BME280;42597;40.636;0.278;2023-03-05T09:11:00;97286.41;;;10.08;52.28
56719;BME280;42597;40.636;0.278;2023-03-05T09:13:26;97291.69;;;10.17;52.02
56719;BME280;42597;40.636;0.278;2023-03-05T09:15:57;97282.03;;;10.28;51.25
56719;BME280;42597;40.636;0.278;2023-03-05T09:18:23;97291.13;;;10.23;51.56
56719;BME280;42597;40.636;0.278;2023-03-05T09:20:49;97283.59;;;10.41;51.41
56719;BME280;42597;40.636;0.278;2023-03-05T09:23:14;97280.44;;;10.39;50.62
56719;BME280;42597;40.636;0.278;2023-03-05T09:25:40;97274.59;;;10.37;51.00
56719;BME280;42597;40.636;0.278;2023-03-05T09:28:06;97280.00;;;10.37;50.70
56719;BME280;42597;40.636;0.278;2023-03-05T09:30:32;97273.25;;;10.43;50.82
56719;BME280;42597;40.636;0.278;2023-03-05T09:33:00;97271.97;;;10.53;49.25
56719;BME280;42597;40.636;0.278;2023-03-05T09:35:26;97268.84;;;10.51;49.37
56719;BME280;42597;40.636;0.278;2023-03-05T09:37:52;97273.06;;;10.64;48.95
56719;BME280;42597;40.636;0.278;2023-03-05T09:40:19;97266.91;;;10.51;49.17
56719;BME280;42597;40.636;0.278;2023-03-05T09:45:43;97261.50;;;10.92;48.59
56719;BME280;42597;40.636;0.278;2023-03-05T09:48:23;97254.91;;;10.77;48.77
56719;BME280;42597;40.636;0.278;2023-03-05T09:50:58;97246.16;;;10.68;48.70
56719;BME280;42597;40.636;0.278;2023-03-05T09:53:47;97250.78;;;10.67;48.41
56719;BME280;42597;40.636;0.278;2023-03-05T09:56:36;97242.16;;;10.77;49.90
56719;BME280;42597;40.636;0.278;2023-03-05T09:59:25;97240.53;;;10.88;49.28
56719;BME280;42597;40.636;0.278;2023-03-05T10:01:56;97238.88;;;10.84;48.81
56719;BME280;42597;40.636;0.278;2023-03-05T10:04:52;97236.22;;;11.00;48.13
56719;BME280;42597;40.636;0.278;2023-03-05T10:07:29;97231.94;;;10.99;48.54
56719;BME280;42597;40.636;0.278;2023-03-05T10:10:07;97230.03;;;10.99;47.99
56719;BME280;42597;40.636;0.278;2023-03-05T10:12:44;97223.78;;;11.11;47.82
56719;BME280;42597;40.636;0.278;2023-03-05T10:18:13;97220.13;;;11.19;48.22
56719;BME280;42597;40.636;0.278;2023-03-05T10:45:21;97208.66;;;11.73;47.55
56719;BME280;42597;40.636;0.278;2023-03-05T10:47:56;97208.94;;;11.68;47.42
56719;BME280;42597;40.636;0.278;2023-03-05T10:50:32;97211.03;;;11.75;47.44
56719;BME280;42597;40.636;0.278;2023-03-05T10:53:46;97202.38;;;12.01;47.48
56719;BME280;42597;40.636;0.278;2023-03-05T10:56:13;97210.53;;;11.85;47.03
56719;BME280;42597;40.636;0.278;2023-03-05T10:58:39;97215.50;;;11.99;47.74
56719;BME280;42597;40.636;0.278;2023-03-05T11:03:57;97203.69;;;12.07;46.93
56719;BME280;42597;40.636;0.278;2023-03-05T11:06:39;97200.28;;;12.10;47.23
56719;BME280;42597;40.636;0.278;2023-03-05T11:09:41;97208.72;;;12.08;46.36
56719;BME280;42597;40.636;0.278;2023-03-05T11:14:37;97200.41;;;12.17;46.33
56719;BME280;42597;40.636;0.278;2023-03-05T11:19:48;97191.28;;;12.25;45.94
56719;BME280;42597;40.636;0.278;2023-03-05T11:22:19;97185.16;;;12.28;46.18
56719;BME280;42597;40.636;0.278;2023-03-05T11:27:55;97183.81;;;12.38;45.58
56719;BME280;42597;40.636;0.278;2023-03-05T11:30:27;97180.06;;;12.43;46.77
56719;BME280;42597;40.636;0.278;2023-03-05T11:35:38;97170.19;;;12.54;45.53
56719;BME280;42597;40.636;0.278;2023-03-05T11:38:05;97161.41;;;12.60;45.33
56719;BME280;42597;40.636;0.278;2023-03-05T11:40:34;97161.91;;;12.66;45.84
56719;BME280;42597;40.636;0.278;2023-03-05T11:43:03;97155.06;;;12.72;44.06
56719;BME280;42597;40.636;0.278;2023-03-05T11:45:31;97153.75;;;12.66;44.43
56719;BME280;42597;40.636;0.278;2023-03-05T11:48:19;97147.59;;;12.46;43.71
56719;BME280;42597;40.636;0.278;2023-03-05T11:50:50;97143.22;;;12.61;44.20
56719;BME280;42597;40.636;0.278;2023-03-05T11:53:21;97139.78;;;12.83;45.38
56719;BME280;42597;40.636;0.278;2023-03-05T11:55:55;97131.97;;;12.82;47.94
56719;BME280;42597;40.636;0.278;2023-03-05T12:01:24;97134.34;;;12.83;50.32
56719;BME280;42597;40.636;0.278;2023-03-05T12:03:52;97114.94;;;12.81;49.84
56719;BME280;42597;40.636;0.278;2023-03-05T12:06:36;97128.78;;;12.76;51.76
56719;BME280;42597;40.636;0.278;2023-03-05T12:09:11;97113.72;;;13.02;52.65
56719;BME280;42597;40.636;0.278;2023-03-05T12:11:38;97105.81;;;12.70;54.80
56719;BME280;42597;40.636;0.278;2023-03-05T12:14:32;97115.91;;;12.93;54.19
56719;BME280;42597;40.636;0.278;2023-03-05T12:17:20;97111.09;;;12.82;55.62
56719;BME280;42597;40.636;0.278;2023-03-05T12:20:24;97096.09;;;13.12;53.26
56719;BME280;42597;40.636;0.278;2023-03-05T12:22:46;97108.22;;;12.95;53.02
56719;BME280;42597;40.636;0.278;2023-03-05T12:27:55;97083.72;;;13.14;55.93
56719;BME280;42597;40.636;0.278;2023-03-05T12:38:52;97062.44;;;12.93;58.28
56719;BME280;42597;40.636;0.278;2023-03-05T12:46:31;97056.38;;;13.00;58.04
56719;BME280;42597;40.636;0.278;2023-03-05T12:51:46;97048.50;;;12.91;59.43
56719;BME280;42597;40.636;0.278;2023-03-05T12:56:48;97046.13;;;12.90;59.58
56719;BME280;42597;40.636;0.278;2023-03-05T12:59:19;97033.53;;;13.24;55.37
56719;BME280;42597;40.636;0.278;2023-03-05T13:04:25;97034.72;;;13.03;59.88
56719;BME280;42597;40.636;0.278;2023-03-05T13:07:13;97029.84;;;12.90;61.79
56719;BME280;42597;40.636;0.278;2023-03-05T13:09:39;97018.91;;;12.82;62.79
56719;BME280;42597;40.636;0.278;2023-03-05T13:12:11;97024.56;;;12.97;62.26
56719;BME280;42597;40.636;0.278;2023-03-05T13:15:04;97016.16;;;13.05;62.59
56719;BME280;42597;40.636;0.278;2023-03-05T13:17:33;97016.22;;;13.09;63.03
56719;BME280;42597;40.636;0.278;2023-03-05T13:20:00;96999.41;;;13.00;62.00
56719;BME280;42597;40.636;0.278;2023-03-05T13:22:26;97002.00;;;12.93;63.21
56719;BME280;42597;40.636;0.278;2023-03-05T13:25:15;97000.47;;;12.92;63.89
56719;BME280;42597;40.636;0.278;2023-03-05T13:27:41;96991.06;;;13.12;62.46
56719;BME280;42597;40.636;0.278;2023-03-05T13:30:27;96993.13;;;13.22;62.37
56719;BME280;42597;40.636;0.278;2023-03-05T13:32:58;96979.94;;;13.21;62.52
56719;BME280;42597;40.636;0.278;2023-03-05T13:35:27;96979.66;;;13.26;62.32
56719;BME280;42597;40.636;0.278;2023-03-05T13:37:53;96975.19;;;13.14;62.46
56719;BME280;42597;40.636;0.278;2023-03-05T13:40:30;96966.25;;;13.37;61.89
56719;BME280;42597;40.636;0.278;2023-03-05T13:43:08;96960.00;;;13.32;61.90
56719;BME280;42597;40.636;0.278;2023-03-05T13:45:34;96951.38;;;13.57;61.01
56719;BME280;42597;40.636;0.278;2023-03-05T13:48:03;96956.31;;;13.48;60.87
56719;BME280;42597;40.636;0.278;2023-03-05T13:50:34;96952.91;;;13.24;61.56
56719;BME280;42597;40.636;0.278;2023-03-05T13:53:29;96956.03;;;13.26;62.07
56719;BME280;42597;40.636;0.278;2023-03-05T13:55:57;96953.72;;;13.28;62.47
56719;BME280;42597;40.636;0.278;2023-03-05T13:58:52;96947.16;;;13.29;62.98
56719;BME280;42597;40.636;0.278;2023-03-05T14:01:39;96942.56;;;13.33;62.67
56719;BME280;42597;40.636;0.278;2023-03-05T14:09:25;96938.28;;;13.32;60.08
56719;BME280;42597;40.636;0.278;2023-03-05T14:11:56;96935.66;;;13.13;61.06
56719;BME280;42597;40.636;0.278;2023-03-05T14:14:23;96934.22;;;13.19;60.06
56719;BME280;42597;40.636;0.278;2023-03-05T14:16:50;96925.91;;;13.35;59.13
56719;BME280;42597;40.636;0.278;2023-03-05T14:21:59;96939.44;;;13.31;57.43
56719;BME280;42597;40.636;0.278;2023-03-05T14:24:26;96931.72;;;13.07;57.82
56719;BME280;42597;40.636;0.278;2023-03-05T14:26:56;96925.66;;;13.17;56.94
56719;BME280;42597;40.636;0.278;2023-03-05T14:29:26;96911.88;;;13.29;56.18
56719;BME280;42597;40.636;0.278;2023-03-05T14:31:56;96922.53;;;13.15;55.98
56719;BME280;42597;40.636;0.278;2023-03-05T14:34:38;96913.44;;;13.30;55.54